Time;durP1;ratioP1;P1;durP2;ratioP2;P2;SDS_P1;SDS_P2;PMS_P1;PMS_P2;Temp;Humidity;BMP_temperature;BMP_pressure;BME280_temperature;BME280_humidity;BME280_pressure;Samples;Min_cycle;Max_cycle;Signal;HPM_P1;HPM_P2
2022/03/19 00:00:06;;;;;;;13.45;3.35;;;;;;;;;;5014460;28;20056;-71
2022/03/19 00:02:32;;;;;;;15.98;3.60;;;;;;;;;;5015136;28;20053;-71
2022/03/19 00:04:58;;;;;;;13.00;2.70;;;;;;;;;;5012277;28;20405;-71
2022/03/19 00:07:26;;;;;;;14.93;2.83;;;;;;;;;;5014066;28;20045;-71
2022/03/19 00:09:52;;;;;;;16.10;3.25;;;;;;;;;;5012932;28;20085;-71
2022/03/19 00:12:19;;;;;;;13.20;3.35;;;;;;;;;;5013661;28;20125;-71
2022/03/19 00:14:45;;;;;;;18.05;3.30;;;;;;;;;;5013704;28;20098;-71
2022/03/19 00:17:11;;;;;;;17.85;2.95;;;;;;;;;;5012544;28;20140;-71
2022/03/19 00:19:38;;;;;;;15.20;3.20;;;;;;;;;;5013986;28;20500;-71
2022/03/19 00:22:04;;;;;;;14.95;3.47;;;;;;;;;;5013702;28;20042;-71
2022/03/19 00:24:30;;;;;;;20.98;4.70;;;;;;;;;;4996406;28;20050;-71
2022/03/19 00:26:56;;;;;;;12.07;3.17;;;;;;;;;;5013321;28;20169;-71
2022/03/19 00:29:22;;;;;;;11.70;3.33;;;;;;;;;;5013625;28;20070;-71
2022/03/19 00:31:48;;;;;;;15.25;3.80;;;;;;;;;;5013421;28;20188;-72
2022/03/19 00:34:15;;;;;;;21.25;4.00;;;;;;;;;;5013556;28;20073;-72
2022/03/19 00:36:42;;;;;;;12.82;3.20;;;;;;;;;;5012488;28;20052;-71
2022/03/19 00:39:08;;;;;;;14.73;3.65;;;;;;;;;;5029309;28;20088;-71
2022/03/19 00:41:34;;;;;;;13.30;3.38;;;;;;;;;;5033187;28;20053;-72
2022/03/19 00:44:00;;;;;;;17.08;3.10;;;;;;;;;;5015765;28;20042;-71
2022/03/19 00:46:26;;;;;;;14.02;3.35;;;;;;;;;;5032992;28;20500;-71
2022/03/19 00:48:52;;;;;;;15.50;3.35;;;;;;;;;;5032921;28;20037;-71
2022/03/19 00:51:18;;;;;;;13.35;3.70;;;;;;;;;;5032803;28;20080;-71
2022/03/19 00:53:44;;;;;;;12.27;3.70;;;;;;;;;;5032693;28;20051;-71
2022/03/19 00:56:10;;;;;;;10.23;3.10;;;;;;;;;;5032896;28;20122;-72
2022/03/19 00:58:36;;;;;;;16.15;4.70;;;;;;;;;;5033412;28;20052;-71
2022/03/19 01:01:02;;;;;;;13.00;3.58;;;;;;;;;;5032912;28;20037;-72
2022/03/19 01:03:28;;;;;;;15.27;3.65;;;;;;;;;;5032730;28;20037;-71
2022/03/19 01:05:54;;;;;;;13.40;3.58;;;;;;;;;;5032638;28;20049;-71
2022/03/19 01:08:20;;;;;;;12.20;3.50;;;;;;;;;;5032572;28;20053;-71
2022/03/19 01:10:46;;;;;;;13.38;3.47;;;;;;;;;;5032822;28;20088;-71
2022/03/19 01:13:12;;;;;;;15.07;3.70;;;;;;;;;;5033127;28;20046;-71
2022/03/19 01:15:38;;;;;;;11.40;3.42;;;;;;;;;;5014947;28;20133;-71
2022/03/19 01:18:05;;;;;;;14.95;4.13;;;;;;;;;;5032657;28;20049;-71
2022/03/19 01:20:31;;;;;;;19.40;4.93;;;;;;;;;;5032621;28;20074;-72
2022/03/19 01:22:57;;;;;;;13.52;4.20;;;;;;;;;;5036035;28;20054;-71
2022/03/19 01:25:23;;;;;;;15.27;4.00;;;;;;;;;;5036257;28;20041;-71
2022/03/19 01:27:51;;;;;;;20.13;4.68;;;;;;;;;;5018623;28;20521;-71
2022/03/19 01:30:19;;;;;;;23.75;4.78;;;;;;;;;;5018759;28;20045;-72
2022/03/19 01:32:46;;;;;;;15.70;4.25;;;;;;;;;;5035597;28;20134;-71
2022/03/19 01:35:12;;;;;;;28.33;5.75;;;;;;;;;;5018174;28;20503;-72
2022/03/19 01:37:39;;;;;;;16.65;4.55;;;;;;;;;;5035515;28;20049;-72
2022/03/19 01:40:05;;;;;;;19.80;4.72;;;;;;;;;;5035495;28;20504;-71
2022/03/19 01:42:33;;;;;;;16.23;4.32;;;;;;;;;;5036074;28;20045;-71
2022/03/19 01:45:00;;;;;;;14.52;4.03;;;;;;;;;;5018291;28;20076;-71
2022/03/19 01:47:26;;;;;;;16.80;3.65;;;;;;;;;;5035811;28;20081;-72
2022/03/19 01:49:52;;;;;;;14.73;3.90;;;;;;;;;;5036146;28;20126;-71
2022/03/19 01:52:19;;;;;;;19.60;4.93;;;;;;;;;;5035783;28;20088;-71
2022/03/19 01:54:45;;;;;;;14.18;3.55;;;;;;;;;;5035737;28;20087;-71
2022/03/19 01:57:14;;;;;;;11.38;3.75;;;;;;;;;;5036111;28;20084;-71
2022/03/19 01:59:41;;;;;;;12.68;4.25;;;;;;;;;;5017861;28;20064;-71
2022/03/19 02:02:08;;;;;;;16.33;4.63;;;;;;;;;;5035694;28;20124;-71
2022/03/19 02:04:37;;;;;;;18.02;4.13;;;;;;;;;;5035582;28;20520;-71
2022/03/19 02:07:03;;;;;;;15.07;3.92;;;;;;;;;;5035415;28;20485;-71
2022/03/19 02:09:30;;;;;;;16.17;3.72;;;;;;;;;;5017643;28;20128;-71
2022/03/19 02:11:56;;;;;;;12.88;3.95;;;;;;;;;;5035395;28;20042;-71
2022/03/19 02:14:22;;;;;;;22.08;5.18;;;;;;;;;;5035140;28;20412;-72
2022/03/19 02:16:49;;;;;;;15.00;4.45;;;;;;;;;;5035799;28;20038;-71
2022/03/19 02:19:15;;;;;;;13.93;3.75;;;;;;;;;;5035613;28;20056;-71
2022/03/19 02:21:41;;;;;;;17.67;4.07;;;;;;;;;;5017780;28;20142;-71
2022/03/19 02:26:52;;;;;;;11.30;4.05;;;;;;;;;;5035258;28;20049;-71
2022/03/19 02:29:19;;;;;;;17.75;4.35;;;;;;;;;;5035407;28;20077;-71
2022/03/19 02:31:47;;;;;;;16.75;5.07;;;;;;;;;;5035574;28;20068;-71
2022/03/19 02:34:13;;;;;;;18.70;4.28;;;;;;;;;;5034480;28;20099;-71
2022/03/19 02:36:42;;;;;;;18.15;4.53;;;;;;;;;;5035178;28;20049;-72
2022/03/19 02:39:08;;;;;;;;;;;;;;;;;;5035267;28;20049;-72
2022/03/19 02:41:34;;;;;;;14.57;4.25;;;;;;;;;;5034978;28;19921;-71
2022/03/19 02:44:00;;;;;;;17.45;4.72;;;;;;;;;;5035372;28;20048;-72
2022/03/19 02:46:43;;;;;;;14.68;4.10;;;;;;;;;;5035058;28;20087;-71
2022/03/19 02:49:09;;;;;;;16.30;4.55;;;;;;;;;;5034828;28;20045;-71
2022/03/19 02:51:36;;;;;;;14.30;4.47;;;;;;;;;;5034756;28;20118;-71
2022/03/19 02:54:05;;;;;;;17.85;4.28;;;;;;;;;;5034563;28;20045;-71
2022/03/19 02:56:35;;;;;;;16.27;4.88;;;;;;;;;;5034975;28;20455;-71
2022/03/19 02:59:05;;;;;;;18.25;4.38;;;;;;;;;;5034298;28;20053;-71
2022/03/19 03:01:32;;;;;;;12.27;3.95;;;;;;;;;;5016702;28;20046;-71
2022/03/19 03:03:58;;;;;;;14.45;4.60;;;;;;;;;;5016983;28;20042;-71
2022/03/19 03:06:24;;;;;;;16.48;5.30;;;;;;;;;;5016938;28;20050;-72
2022/03/19 03:08:50;;;;;;;18.27;4.50;;;;;;;;;;5016686;28;20050;-71
2022/03/19 03:11:17;;;;;;;19.75;4.97;;;;;;;;;;5016726;28;20513;-71
2022/03/19 03:13:44;;;;;;;21.00;5.32;;;;;;;;;;5035024;28;20052;-71
2022/03/19 03:16:10;;;;;;;19.67;5.95;;;;;;;;;;5035235;28;20124;-71
2022/03/19 03:18:37;;;;;;;21.98;4.90;;;;;;;;;;5034711;28;20057;-71
2022/03/19 03:21:03;;;;;;;22.05;7.05;;;;;;;;;;5034452;28;20512;-72
2022/03/19 03:23:29;;;;;;;21.52;6.05;;;;;;;;;;5034839;28;20052;-71
2022/03/19 03:25:55;;;;;;;18.35;5.60;;;;;;;;;;5034445;28;20494;-71
2022/03/19 03:28:21;;;;;;;24.45;6.38;;;;;;;;;;5034367;28;20124;-71
2022/03/19 03:30:47;;;;;;;12.68;4.60;;;;;;;;;;5034259;28;20405;-71
2022/03/19 03:33:13;;;;;;;12.77;4.85;;;;;;;;;;5034546;28;20111;-71
2022/03/19 03:35:39;;;;;;;18.67;4.82;;;;;;;;;;5034080;28;20049;-71
2022/03/19 03:38:05;;;;;;;25.42;5.32;;;;;;;;;;5033828;28;20057;-71
2022/03/19 03:40:31;;;;;;;19.58;5.85;;;;;;;;;;5016541;28;20104;-71
2022/03/19 03:42:57;;;;;;;20.13;5.45;;;;;;;;;;5034287;28;20038;-71
2022/03/19 03:45:23;;;;;;;17.40;5.35;;;;;;;;;;5033893;28;20084;-71
2022/03/19 03:47:50;;;;;;;18.00;5.13;;;;;;;;;;5034468;28;20096;-71
2022/03/19 03:50:16;;;;;;;20.65;5.50;;;;;;;;;;5034091;28;20515;-71
2022/03/19 03:52:42;;;;;;;16.45;5.32;;;;;;;;;;5016422;28;20041;-71
2022/03/19 03:55:09;;;;;;;20.92;5.53;;;;;;;;;;5033907;28;20485;-71
2022/03/19 03:57:35;;;;;;;18.73;5.05;;;;;;;;;;5033927;28;20045;-71
2022/03/19 04:00:02;;;;;;;20.60;5.82;;;;;;;;;;5034108;28;20049;-71
2022/03/19 04:02:28;;;;;;;20.52;5.95;;;;;;;;;;5033806;28;20124;-71
2022/03/19 04:04:54;;;;;;;15.25;6.00;;;;;;;;;;5033769;28;20081;-71
2022/03/19 04:07:21;;;;;;;19.02;6.20;;;;;;;;;;5015925;28;20077;-71
2022/03/19 04:09:47;;;;;;;21.27;6.07;;;;;;;;;;5033669;28;20409;-71
2022/03/19 04:12:14;;;;;;;18.85;6.65;;;;;;;;;;5033636;28;20373;-71
2022/03/19 04:14:40;;;;;;;21.08;6.03;;;;;;;;;;5034121;28;20064;-71
2022/03/19 04:17:07;;;;;;;17.00;5.40;;;;;;;;;;5033541;28;20488;-71
2022/03/19 04:19:33;;;;;;;25.55;6.63;;;;;;;;;;5033513;28;20042;-71
2022/03/19 04:21:59;;;;;;;19.25;6.45;;;;;;;;;;5033395;28;20583;-71
2022/03/19 04:24:25;;;;;;;22.00;7.13;;;;;;;;;;5033325;28;20084;-71
2022/03/19 04:26:51;;;;;;;35.47;7.72;;;;;;;;;;5033293;28;20121;-71
2022/03/19 04:29:17;;;;;;;30.25;6.97;;;;;;;;;;5033528;28;20095;-71
2022/03/19 04:31:43;;;;;;;21.42;7.40;;;;;;;;;;5015705;28;20045;-71
2022/03/19 04:34:09;;;;;;;20.05;5.63;;;;;;;;;;5033431;28;20042;-71
2022/03/19 04:36:37;;;;;;;19.17;6.28;;;;;;;;;;5015525;28;20457;-71
2022/03/19 04:39:03;;;;;;;18.42;6.10;;;;;;;;;;5033117;28;20176;-71
2022/03/19 04:41:30;;;;;;;17.00;5.63;;;;;;;;;;5033650;28;20052;-71
2022/03/19 04:43:56;;;;;;;15.27;6.00;;;;;;;;;;5033162;28;20502;-71
2022/03/19 04:46:22;;;;;;;17.17;6.40;;;;;;;;;;5033572;28;20120;-71
2022/03/19 04:48:48;;;;;;;25.13;6.38;;;;;;;;;;5034773;28;20510;-71
2022/03/19 04:51:15;;;;;;;19.95;5.72;;;;;;;;;;5033732;28;20525;-71
2022/03/19 04:53:41;;;;;;;20.67;6.32;;;;;;;;;;5033842;28;20045;-71
2022/03/19 04:56:07;;;;;;;25.23;6.55;;;;;;;;;;5016667;28;20580;-71
2022/03/19 04:58:34;;;;;;;19.30;6.10;;;;;;;;;;5019346;28;20128;-71
2022/03/19 05:01:00;;;;;;;23.92;5.78;;;;;;;;;;5037183;28;20394;-72
2022/03/19 05:03:26;;;;;;;21.33;8.07;;;;;;;;;;5037457;28;20098;-71
2022/03/19 05:05:52;;;;;;;23.80;6.28;;;;;;;;;;5036552;28;20396;-71
2022/03/19 05:08:18;;;;;;;21.60;5.80;;;;;;;;;;5037042;28;20098;-72
2022/03/19 05:13:29;;;;;;;35.13;7.20;;;;;;;;;;5036835;28;20140;-71
2022/03/19 05:15:55;;;;;;;82.90;11.27;;;;;;;;;;5037089;28;20045;-71
2022/03/19 05:18:21;;;;;;;19.48;5.90;;;;;;;;;;5036689;28;20051;-71
2022/03/19 05:20:47;;;;;;;23.65;6.88;;;;;;;;;;5036760;28;20515;-71
2022/03/19 05:23:13;;;;;;;25.25;6.95;;;;;;;;;;5036767;28;20045;-71
2022/03/19 05:25:40;;;;;;;32.53;8.18;;;;;;;;;;5036639;28;20195;-71
2022/03/19 05:28:06;;;;;;;38.92;7.68;;;;;;;;;;5018553;28;20126;-72
2022/03/19 05:30:32;;;;;;;19.90;6.15;;;;;;;;;;5002315;28;20080;-71
2022/03/19 05:32:58;;;;;;;18.48;5.82;;;;;;;;;;5036114;28;20140;-71
2022/03/19 05:35:26;;;;;;;22.50;5.55;;;;;;;;;;5036605;28;20132;-72
2022/03/19 05:37:52;;;;;;;23.38;6.90;;;;;;;;;;5019259;28;20061;-72
2022/03/19 05:40:19;;;;;;;45.47;10.15;;;;;;;;;;5036564;28;20134;-71
2022/03/19 05:42:45;;;;;;;27.73;6.00;;;;;;;;;;5036377;28;20049;-71
2022/03/19 05:45:13;;;;;;;22.88;7.55;;;;;;;;;;5036473;28;20045;-71
2022/03/19 05:47:39;;;;;;;38.88;8.63;;;;;;;;;;5018547;28;20049;-71
2022/03/19 05:50:06;;;;;;;18.90;5.03;;;;;;;;;;5036442;28;20060;-71
2022/03/19 05:52:32;;;;;;;33.78;7.90;;;;;;;;;;5036450;28;20512;-72
2022/03/19 05:54:58;;;;;;;34.17;8.55;;;;;;;;;;5036157;28;20041;-72
2022/03/19 05:57:24;;;;;;;31.55;7.97;;;;;;;;;;5036274;28;20560;-71
2022/03/19 05:59:50;;;;;;;41.13;9.82;;;;;;;;;;5036817;28;20048;-71
2022/03/19 06:02:16;;;;;;;26.58;7.35;;;;;;;;;;5037611;28;20037;-72
2022/03/19 06:04:42;;;;;;;37.63;9.63;;;;;;;;;;5038019;28;20041;-71
2022/03/19 06:07:08;;;;;;;28.67;9.02;;;;;;;;;;5036915;28;20049;-71
2022/03/19 06:09:34;;;;;;;31.88;8.45;;;;;;;;;;5018991;28;20378;-71
2022/03/19 06:12:00;;;;;;;43.50;10.68;;;;;;;;;;5037165;28;20052;-71
2022/03/19 06:14:26;;;;;;;63.78;14.95;;;;;;;;;;5037719;28;20132;-71
2022/03/19 06:16:52;;;;;;;37.70;9.35;;;;;;;;;;5037513;28;20079;-71
2022/03/19 06:19:18;;;;;;;54.17;13.63;;;;;;;;;;5019559;28;20045;-71
2022/03/19 06:21:44;;;;;;;41.20;9.57;;;;;;;;;;5038496;28;20045;-71
2022/03/19 06:24:10;;;;;;;37.22;9.90;;;;;;;;;;5040234;28;20146;-71
2022/03/19 06:26:37;;;;;;;23.48;7.43;;;;;;;;;;5038417;28;20042;-72
2022/03/19 06:29:03;;;;;;;18.67;7.55;;;;;;;;;;5006679;28;20046;-72
2022/03/19 06:31:29;;;;;;;31.92;9.57;;;;;;;;;;5037335;28;20045;-72
2022/03/19 06:33:55;;;;;;;31.02;8.98;;;;;;;;;;5037063;28;20064;-71
2022/03/19 06:39:06;;;;;;;36.10;9.18;;;;;;;;;;5036134;28;20053;-71
2022/03/19 06:41:33;;;;;;;27.52;8.38;;;;;;;;;;5035978;28;20049;-71
2022/03/19 06:43:59;;;;;;;26.73;6.82;;;;;;;;;;5035488;28;20485;-72
2022/03/19 06:46:25;;;;;;;24.83;7.30;;;;;;;;;;5035706;28;20041;-72
2022/03/19 06:48:51;;;;;;;31.90;8.80;;;;;;;;;;5035531;28;20049;-72
2022/03/19 06:51:18;;;;;;;28.17;7.90;;;;;;;;;;5018003;28;20389;-72
2022/03/19 06:53:44;;;;;;;24.58;7.00;;;;;;;;;;5035097;28;20087;-72
2022/03/19 06:56:10;;;;;;;27.35;6.97;;;;;;;;;;5035651;28;20050;-71
2022/03/19 06:58:36;;;;;;;26.67;7.80;;;;;;;;;;5036237;28;20048;-72
2022/03/19 07:01:03;;;;;;;27.58;8.38;;;;;;;;;;5002135;28;20045;-72
2022/03/19 07:03:29;;;;;;;41.90;11.48;;;;;;;;;;5037059;28;20049;-72
2022/03/19 07:05:55;;;;;;;45.00;11.15;;;;;;;;;;5034677;28;20578;-72
2022/03/19 07:08:21;;;;;;;26.70;7.53;;;;;;;;;;5035616;28;20080;-72
2022/03/19 07:10:48;;;;;;;39.42;9.48;;;;;;;;;;5035733;28;20053;-72
2022/03/19 07:13:14;;;;;;;21.63;6.22;;;;;;;;;;5035782;28;20053;-72
2022/03/19 07:15:41;;;;;;;43.25;9.68;;;;;;;;;;5036141;28;20136;-72
2022/03/19 07:18:07;;;;;;;37.83;8.85;;;;;;;;;;5036140;28;20103;-72
2022/03/19 07:20:33;;;;;;;20.25;7.00;;;;;;;;;;5035230;28;20486;-71
2022/03/19 07:22:59;;;;;;;50.83;10.88;;;;;;;;;;5035547;28;20077;-72
2022/03/19 07:25:26;;;;;;;48.35;11.40;;;;;;;;;;5036383;28;20038;-71
2022/03/19 07:27:53;;;;;;;30.60;7.93;;;;;;;;;;5035785;28;20045;-72
2022/03/19 07:30:19;;;;;;;25.38;8.00;;;;;;;;;;5035792;28;20041;-71
2022/03/19 07:32:45;;;;;;;23.08;7.20;;;;;;;;;;5017941;28;20120;-70
2022/03/19 07:35:13;;;;;;;17.85;6.57;;;;;;;;;;5035297;28;20041;-70
2022/03/19 07:37:40;;;;;;;20.20;6.43;;;;;;;;;;5034850;28;20111;-70
2022/03/19 07:40:07;;;;;;;27.58;7.47;;;;;;;;;;5035063;28;20049;-72
2022/03/19 07:42:33;;;;;;;19.30;6.20;;;;;;;;;;5000677;28;20055;-72
2022/03/19 07:45:00;;;;;;;27.52;8.40;;;;;;;;;;5034606;28;20120;-70
2022/03/19 07:47:26;;;;;;;32.97;8.82;;;;;;;;;;5016178;28;20056;-72
2022/03/19 07:49:52;;;;;;;33.17;8.88;;;;;;;;;;5034738;28;20041;-71
2022/03/19 07:52:18;;;;;;;27.40;7.50;;;;;;;;;;5034114;28;20099;-72
2022/03/19 07:54:44;;;;;;;49.22;10.30;;;;;;;;;;5016610;28;20461;-71
2022/03/19 07:57:11;;;;;;;22.27;6.00;;;;;;;;;;5034283;28;20104;-71
2022/03/19 07:59:41;;;;;;;27.70;7.72;;;;;;;;;;5016284;28;20045;-71
2022/03/19 08:02:07;;;;;;;38.40;9.65;;;;;;;;;;5034420;28;20094;-71
2022/03/19 08:04:33;;;;;;;24.77;6.82;;;;;;;;;;5034393;28;20041;-71
2022/03/19 08:06:59;;;;;;;22.95;5.90;;;;;;;;;;5033658;28;20049;-72
2022/03/19 08:09:25;;;;;;;14.77;4.57;;;;;;;;;;5033640;28;20037;-71
2022/03/19 08:11:52;;;;;;;20.38;5.10;;;;;;;;;;5033988;28;20049;-71
2022/03/19 08:14:19;;;;;;;15.10;5.85;;;;;;;;;;5033877;28;20365;-71
2022/03/19 08:16:49;;;;;;;25.67;7.00;;;;;;;;;;5033714;28;20061;-73
2022/03/19 08:19:15;;;;;;;37.00;7.85;;;;;;;;;;5033138;28;20400;-72
2022/03/19 08:21:43;;;;;;;27.00;6.70;;;;;;;;;;5033304;28;20396;-73
2022/03/19 08:24:10;;;;;;;25.85;5.80;;;;;;;;;;5033347;28;20389;-72
2022/03/19 08:26:36;;;;;;;31.80;6.47;;;;;;;;;;5033084;28;20038;-72
2022/03/19 08:29:02;;;;;;;22.50;5.15;;;;;;;;;;5033029;28;20056;-72
2022/03/19 08:31:28;;;;;;;24.90;5.60;;;;;;;;;;5034951;28;20045;-72
2022/03/19 08:33:56;;;;;;;16.33;4.47;;;;;;;;;;5037458;28;20125;-72
2022/03/19 08:36:22;;;;;;;23.83;5.93;;;;;;;;;;5036907;28;20451;-72
2022/03/19 08:41:40;;;;;;;21.33;5.55;;;;;;;;;;5014459;28;20049;-72
2022/03/19 08:44:06;;;;;;;17.23;4.88;;;;;;;;;;5020032;28;20042;-71
2022/03/19 08:46:32;;;;;;;14.40;3.90;;;;;;;;;;5037201;28;20095;-71
2022/03/19 08:48:58;;;;;;;35.10;6.28;;;;;;;;;;5037408;28;20038;-71
2022/03/19 08:51:39;;;;;;;22.42;6.32;;;;;;;;;;5020221;28;20095;-72
2022/03/19 08:54:06;;;;;;;29.08;5.82;;;;;;;;;;5020405;28;20190;-72
2022/03/19 08:56:33;;;;;;;21.15;4.93;;;;;;;;;;5040142;28;20053;-74
2022/03/19 08:58:59;;;;;;;17.23;4.03;;;;;;;;;;5037908;28;20420;-71
2022/03/19 09:01:25;;;;;;;10.15;3.25;;;;;;;;;;5037849;28;20496;-71
2022/03/19 09:03:51;;;;;;;13.52;2.92;;;;;;;;;;5038520;28;20080;-71
2022/03/19 09:06:18;;;;;;;14.43;3.20;;;;;;;;;;5038283;28;20108;-71
2022/03/19 09:08:44;;;;;;;19.75;4.22;;;;;;;;;;5037021;28;20163;-71
2022/03/19 09:11:10;;;;;;;19.05;4.72;;;;;;;;;;5036981;28;20041;-71
2022/03/19 09:13:36;;;;;;;23.00;4.95;;;;;;;;;;5037317;28;20045;-71
2022/03/19 09:16:06;;;;;;;18.67;3.78;;;;;;;;;;5038697;28;20120;-71
2022/03/19 09:18:33;;;;;;;20.95;5.65;;;;;;;;;;5021198;28;20068;-71
2022/03/19 09:20:59;;;;;;;27.60;5.78;;;;;;;;;;5019487;28;20046;-71
2022/03/19 09:23:25;;;;;;;22.27;4.60;;;;;;;;;;5036433;28;20041;-71
2022/03/19 09:25:51;;;;;;;16.75;4.38;;;;;;;;;;5036362;28;20481;-71
2022/03/19 09:28:17;;;;;;;20.98;4.18;;;;;;;;;;5036349;28;20072;-71
2022/03/19 09:30:43;;;;;;;18.95;3.92;;;;;;;;;;5018190;28;20132;-71
2022/03/19 09:33:09;;;;;;;14.82;2.72;;;;;;;;;;5018739;28;20049;-72
2022/03/19 09:35:36;;;;;;;17.55;3.38;;;;;;;;;;5036165;28;20042;-71
2022/03/19 09:38:02;;;;;;;20.30;3.30;;;;;;;;;;5018363;28;20132;-72
2022/03/19 09:40:28;;;;;;;18.13;3.97;;;;;;;;;;5036719;28;20132;-71
2022/03/19 09:42:57;;;;;;;14.65;3.03;;;;;;;;;;5037011;28;20485;-72
2022/03/19 09:45:24;;;;;;;11.73;2.72;;;;;;;;;;5036346;28;20092;-72
2022/03/19 09:47:51;;;;;;;18.90;3.78;;;;;;;;;;5018193;28;20053;-71
2022/03/19 09:50:17;;;;;;;12.95;2.78;;;;;;;;;;5035901;28;20037;-72
2022/03/19 09:52:44;;;;;;;15.45;3.83;;;;;;;;;;5036013;28;20045;-72
2022/03/19 09:55:16;;;;;;;18.42;3.05;;;;;;;;;;5035910;28;20046;-72
2022/03/19 09:57:43;;;;;;;11.82;2.88;;;;;;;;;;5035552;28;20057;-73
2022/03/19 10:00:09;;;;;;;14.68;3.60;;;;;;;;;;5035929;28;20072;-72
2022/03/19 10:02:49;;;;;;;12.70;3.00;;;;;;;;;;5036318;28;20052;-72
2022/03/19 10:10:45;;;;;;;13.10;3.60;;;;;;;;;;5035777;28;20050;-72
2022/03/19 10:13:11;;;;;;;10.18;2.60;;;;;;;;;;5035647;28;20046;-72
2022/03/19 10:15:41;;;;;;;13.77;2.97;;;;;;;;;;5035722;28;20042;-72
2022/03/19 10:18:08;;;;;;;17.45;3.63;;;;;;;;;;5035819;28;20041;-72
2022/03/19 10:20:34;;;;;;;12.68;3.00;;;;;;;;;;5035525;28;20046;-73
2022/03/19 10:23:00;;;;;;;25.50;9.10;;;;;;;;;;5035574;28;20056;-72
2022/03/19 10:25:26;;;;;;;14.10;4.47;;;;;;;;;;5001773;28;20084;-72
2022/03/19 10:27:59;;;;;;;12.88;2.97;;;;;;;;;;5035291;28;20077;-72
2022/03/19 10:30:28;;;;;;;8.80;3.42;;;;;;;;;;5035533;28;20064;-72
2022/03/19 10:32:54;;;;;;;12.10;3.53;;;;;;;;;;5035104;28;20492;-73
2022/03/19 10:35:25;;;;;;;6.38;2.10;;;;;;;;;;5035614;28;20052;-73
2022/03/19 10:37:51;;;;;;;8.77;2.30;;;;;;;;;;5034977;28;20076;-73
2022/03/19 10:40:17;;;;;;;8.68;2.55;;;;;;;;;;5034990;28;20053;-73
2022/03/19 10:42:43;;;;;;;7.95;2.50;;;;;;;;;;5035490;28;20045;-73
2022/03/19 10:45:11;;;;;;;11.55;3.05;;;;;;;;;;5034918;28;20045;-74
2022/03/19 10:47:44;;;;;;;7.30;2.15;;;;;;;;;;5034677;28;20042;-73
2022/03/19 10:50:11;;;;;;;15.50;2.60;;;;;;;;;;5035335;28;20057;-73
2022/03/19 10:52:37;;;;;;;9.65;2.40;;;;;;;;;;5034808;28;20400;-73
2022/03/19 10:55:04;;;;;;;8.82;2.33;;;;;;;;;;5034383;28;20049;-73
2022/03/19 10:57:31;;;;;;;7.70;2.03;;;;;;;;;;5035408;28;20061;-73
2022/03/19 10:59:57;;;;;;;7.53;2.50;;;;;;;;;;5034814;28;20137;-73
2022/03/19 11:02:26;;;;;;;7.15;2.30;;;;;;;;;;5034382;28;20041;-73
2022/03/19 11:04:52;;;;;;;8.07;2.33;;;;;;;;;;5034812;28;20099;-74
2022/03/19 11:07:20;;;;;;;7.65;2.15;;;;;;;;;;5034348;28;20045;-73
2022/03/19 11:09:50;;;;;;;7.53;1.83;;;;;;;;;;5034703;28;20099;-73
2022/03/19 11:12:17;;;;;;;7.55;1.70;;;;;;;;;;5000513;28;20288;-75
2022/03/19 11:14:44;;;;;;;6.45;2.05;;;;;;;;;;5017252;28;20129;-73
2022/03/19 11:17:23;;;;;;;9.52;2.35;;;;;;;;;;5034717;28;20049;-73
2022/03/19 11:19:49;;;;;;;8.50;2.20;;;;;;;;;;5017235;28;20516;-74
2022/03/19 11:22:15;;;;;;;6.85;1.80;;;;;;;;;;5035716;28;20045;-74
2022/03/19 11:24:47;;;;;;;8.18;1.92;;;;;;;;;;5034421;28;20564;-74
2022/03/19 11:27:13;;;;;;;5.30;2.20;;;;;;;;;;5016547;28;20041;-74
2022/03/19 11:29:40;;;;;;;9.52;2.20;;;;;;;;;;5034346;28;20044;-74
2022/03/19 11:32:06;;;;;;;6.07;1.88;;;;;;;;;;5034413;28;20125;-73
2022/03/19 11:34:46;;;;;;;7.45;2.28;;;;;;;;;;5033977;28;20050;-75
2022/03/19 11:37:12;;;;;;;7.05;2.08;;;;;;;;;;5016115;28;20052;-74
2022/03/19 11:39:39;;;;;;;4.88;1.90;;;;;;;;;;5033404;28;20065;-74
2022/03/19 11:42:09;;;;;;;14.68;3.28;;;;;;;;;;5033662;28;20053;-73
2022/03/19 11:44:49;;;;;;;10.30;3.00;;;;;;;;;;5033948;28;20456;-73
2022/03/19 11:47:19;;;;;;;8.63;2.35;;;;;;;;;;5033774;28;20045;-73
2022/03/19 11:49:56;;;;;;;8.05;2.53;;;;;;;;;;5033754;28;20045;-74
2022/03/19 11:52:25;;;;;;;11.23;3.03;;;;;;;;;;5033636;28;20117;-73
2022/03/19 11:55:03;;;;;;;7.80;2.40;;;;;;;;;;4999662;28;20052;-73
2022/03/19 11:57:47;;;;;;;8.82;2.88;;;;;;;;;;5034177;28;20139;-74
2022/03/19 12:00:14;;;;;;;10.82;3.38;;;;;;;;;;5034156;28;20054;-73
2022/03/19 12:03:06;;;;;;;8.70;2.92;;;;;;;;;;5033823;28;20060;-74
2022/03/19 12:05:34;;;;;;;13.07;3.05;;;;;;;;;;5028298;28;20143;-73
2022/03/19 12:08:10;;;;;;;15.18;3.33;;;;;;;;;;5033952;28;20045;-74
2022/03/19 12:10:54;;;;;;;8.70;2.35;;;;;;;;;;5033332;28;20049;-73
2022/03/19 12:13:29;;;;;;;6.68;2.47;;;;;;;;;;5033554;28;20504;-73
2022/03/19 12:15:56;;;;;;;9.30;2.25;;;;;;;;;;5033270;28;20050;-74
2022/03/19 12:18:41;;;;;;;5.78;1.90;;;;;;;;;;5033457;28;20124;-74
2022/03/19 12:21:11;;;;;;;12.15;3.47;;;;;;;;;;5033310;28;20450;-73
2022/03/19 12:23:41;;;;;;;6.35;2.15;;;;;;;;;;5033222;28;20404;-73
2022/03/19 12:26:08;;;;;;;10.02;2.42;;;;;;;;;;5033419;28;20045;-74
2022/03/19 12:28:35;;;;;;;8.32;2.20;;;;;;;;;;5015709;28;20054;-73
2022/03/19 12:31:07;;;;;;;7.25;2.38;;;;;;;;;;5033156;28;20046;-74
2022/03/19 12:33:34;;;;;;;6.22;2.20;;;;;;;;;;5033580;28;20054;-74
2022/03/19 12:36:10;;;;;;;14.38;3.75;;;;;;;;;;5032964;28;20052;-73
2022/03/19 12:38:36;;;;;;;6.45;2.20;;;;;;;;;;5032988;28;20061;-74
2022/03/19 12:43:47;;;;;;;9.52;2.65;;;;;;;;;;5033123;28;20042;-74
2022/03/19 12:46:21;;;;;;;10.00;2.63;;;;;;;;;;5032839;28;20064;-73
2022/03/19 12:48:47;;;;;;;9.88;2.55;;;;;;;;;;5033292;28;20045;-75
2022/03/19 12:51:22;;;;;;;6.60;2.00;;;;;;;;;;5033127;28;20121;-74
2022/03/19 12:53:48;;;;;;;7.80;2.30;;;;;;;;;;5032999;28;20050;-74
2022/03/19 12:56:15;;;;;;;5.78;1.75;;;;;;;;;;5033531;28;20507;-74
2022/03/19 12:58:43;;;;;;;8.60;2.20;;;;;;;;;;5033051;28;20061;-74
2022/03/19 13:01:17;;;;;;;10.68;2.60;;;;;;;;;;5017279;28;20164;-75
2022/03/19 13:03:43;;;;;;;5.50;2.00;;;;;;;;;;5015256;28;20497;-74
2022/03/19 13:06:09;;;;;;;4.97;1.70;;;;;;;;;;5032840;28;20081;-74
2022/03/19 13:08:49;;;;;;;10.45;2.35;;;;;;;;;;5032996;28;20042;-74
2022/03/19 13:11:15;;;;;;;6.00;1.98;;;;;;;;;;5032581;28;20485;-73
2022/03/19 13:13:42;;;;;;;11.02;2.30;;;;;;;;;;5033001;28;20045;-74
2022/03/19 13:16:08;;;;;;;29.00;6.95;;;;;;;;;;5015208;28;20112;-74
2022/03/19 13:18:38;;;;;;;6.60;1.80;;;;;;;;;;5035607;28;20045;-75
2022/03/19 13:21:12;;;;;;;6.72;2.40;;;;;;;;;;5036362;28;20056;-74
2022/03/19 13:23:39;;;;;;;6.80;1.92;;;;;;;;;;5018468;28;20511;-75
2022/03/19 13:26:05;;;;;;;11.50;2.13;;;;;;;;;;5036064;28;20514;-73
2022/03/19 13:28:32;;;;;;;6.95;2.17;;;;;;;;;;5036142;28;20190;-74
2022/03/19 13:30:58;;;;;;;16.38;3.95;;;;;;;;;;5036343;28;20048;-73
2022/03/19 13:33:27;;;;;;;9.23;2.97;;;;;;;;;;5018028;28;20042;-75
2022/03/19 13:35:53;;;;;;;6.18;2.17;;;;;;;;;;5035992;28;20041;-75
2022/03/19 13:38:20;;;;;;;5.57;1.73;;;;;;;;;;5017975;28;20056;-74
2022/03/19 13:40:50;;;;;;;6.10;2.30;;;;;;;;;;5036181;28;20099;-74
2022/03/19 13:43:17;;;;;;;8.10;2.90;;;;;;;;;;5036002;28;20447;-74
2022/03/19 13:45:43;;;;;;;7.35;2.15;;;;;;;;;;5036135;28;20037;-74
2022/03/19 13:48:09;;;;;;;6.07;1.95;;;;;;;;;;5035859;28;20040;-74
2022/03/19 13:50:38;;;;;;;6.40;2.15;;;;;;;;;;5035813;28;20049;-74
2022/03/19 13:53:03;;;;;;;;;;;;;;;;;;5035888;28;20409;-74
2022/03/19 13:55:29;;;;;;;10.35;2.90;;;;;;;;;;5034612;28;19921;-74
2022/03/19 13:57:56;;;;;;;5.25;2.15;;;;;;;;;;5035779;28;20079;-74
2022/03/19 14:00:27;;;;;;;10.15;2.72;;;;;;;;;;5035419;28;20049;-74
2022/03/19 14:03:02;;;;;;;14.40;3.13;;;;;;;;;;5035653;28;20080;-74
2022/03/19 14:05:31;;;;;;;6.55;1.90;;;;;;;;;;5035377;28;20558;-74
2022/03/19 14:07:58;;;;;;;;;;;;;;;;;;5035727;28;20493;-74
2022/03/19 14:10:28;;;;;;;5.15;1.88;;;;;;;;;;5035484;28;20008;-74
2022/03/19 14:13:07;;;;;;;6.78;2.40;;;;;;;;;;5035621;28;20048;-74
2022/03/19 14:15:38;;;;;;;6.78;2.10;;;;;;;;;;5017642;28;20045;-74
2022/03/19 14:18:04;;;;;;;8.77;2.35;;;;;;;;;;5034987;28;20041;-73
2022/03/19 14:20:30;;;;;;;5.40;1.58;;;;;;;;;;5035517;28;20049;-73
2022/03/19 14:22:56;;;;;;;5.88;1.65;;;;;;;;;;5035142;28;20046;-73
2022/03/19 14:25:22;;;;;;;5.18;1.70;;;;;;;;;;5035336;28;20508;-73
2022/03/19 14:27:48;;;;;;;6.70;1.90;;;;;;;;;;5034966;28;20489;-73
2022/03/19 14:30:15;;;;;;;9.25;2.28;;;;;;;;;;5034284;28;20408;-73
2022/03/19 14:32:42;;;;;;;6.60;1.95;;;;;;;;;;5034814;28;20048;-73
2022/03/19 14:35:27;;;;;;;4.82;2.00;;;;;;;;;;5035139;28;20045;-73
2022/03/19 14:37:53;;;;;;;6.32;1.70;;;;;;;;;;5034842;28;20045;-73
2022/03/19 14:40:19;;;;;;;7.60;2.35;;;;;;;;;;5034896;28;20048;-74
2022/03/19 14:42:45;;;;;;;9.88;2.38;;;;;;;;;;5017060;28;20107;-74
2022/03/19 14:45:11;;;;;;;6.88;1.88;;;;;;;;;;5035113;28;20053;-74
2022/03/19 14:47:38;;;;;;;12.05;2.75;;;;;;;;;;5034886;28;20045;-74
2022/03/19 14:50:04;;;;;;;5.88;1.45;;;;;;;;;;5035033;28;20056;-73
2022/03/19 14:52:30;;;;;;;6.18;1.67;;;;;;;;;;5034721;28;20081;-73